createdAt,value
2019-05-25T00:00:13.277Z,-150
2019-05-25T00:00:43.257Z,-151
2019-05-25T00:01:13.306Z,-149
2019-05-25T00:01:43.469Z,-150
2019-05-25T00:02:13.236Z,-150
2019-05-25T00:02:43.292Z,-150
2019-05-25T00:03:13.279Z,-152
2019-05-25T00:03:43.298Z,-150
2019-05-25T00:04:13.440Z,-151
2019-05-25T00:04:43.716Z,-149
2019-05-25T00:05:43.426Z,-149
2019-05-25T00:06:13.331Z,-148
2019-05-25T00:06:43.410Z,-149
2019-05-25T00:07:13.437Z,-149
2019-05-25T00:07:43.636Z,-150
2019-05-25T00:08:43.571Z,-150
2019-05-25T00:09:13.558Z,-151
2019-05-25T00:09:43.658Z,-149
2019-05-25T00:10:13.556Z,-150
2019-05-25T00:10:43.541Z,-150
2019-05-25T00:11:13.668Z,-150
2019-05-25T00:11:43.671Z,-147
2019-05-25T00:12:13.624Z,-148
2019-05-25T00:13:13.698Z,-151
2019-05-25T00:13:43.949Z,-150
2019-05-25T00:14:13.679Z,-146
2019-05-25T00:14:43.696Z,-146
2019-05-25T00:15:13.656Z,-149
2019-05-25T00:16:13.876Z,-148
2019-05-25T00:16:43.904Z,-148
2019-05-25T00:17:13.915Z,-149
2019-05-25T00:17:43.936Z,-149
2019-05-25T00:18:13.789Z,-148
2019-05-25T00:18:43.815Z,-149
2019-05-25T00:19:13.731Z,-149
2019-05-25T00:19:43.786Z,-151
2019-05-25T00:20:13.779Z,-148
2019-05-25T00:20:43.769Z,-148
2019-05-25T00:21:14.360Z,-151
2019-05-25T00:21:43.776Z,-148
2019-05-25T00:22:13.838Z,-149
2019-05-25T00:22:43.845Z,-150
2019-05-25T00:23:13.852Z,-148
2019-05-25T00:23:43.894Z,-148
2019-05-25T00:24:13.874Z,-147
2019-05-25T00:24:44.015Z,-150
2019-05-25T00:25:14.000Z,-150
2019-05-25T00:25:43.952Z,-149
2019-05-25T00:26:13.967Z,-149
2019-05-25T00:27:13.966Z,-150
2019-05-25T00:27:43.960Z,-147
2019-05-25T00:28:14.093Z,-147
2019-05-25T00:28:44.156Z,-147
2019-05-25T00:29:14.206Z,-149
2019-05-25T00:29:44.180Z,-149
2019-05-25T00:30:14.517Z,-152
2019-05-25T00:30:44.058Z,-148
2019-05-25T00:31:14.109Z,-150
2019-05-25T00:31:44.018Z,-150
2019-05-25T00:32:14.222Z,-150
2019-05-25T00:32:44.099Z,-148
2019-05-25T00:33:14.248Z,-149
2019-05-25T00:33:44.275Z,-148
2019-05-25T00:34:14.628Z,-148
2019-05-25T00:34:44.141Z,-148
2019-05-25T00:35:14.133Z,-148
2019-05-25T00:35:44.177Z,-147
2019-05-25T00:36:14.295Z,-150
2019-05-25T00:36:44.383Z,-150
2019-05-25T00:37:14.301Z,-150
2019-05-25T00:37:44.582Z,-150
2019-05-25T00:38:14.341Z,-150
2019-05-25T00:38:44.254Z,-150
2019-05-25T00:39:14.222Z,-150
2019-05-25T00:39:44.411Z,-150
2019-05-25T00:40:14.232Z,-150
2019-05-25T00:40:44.309Z,-149
2019-05-25T00:41:14.373Z,-149
2019-05-25T00:41:44.400Z,-148
2019-05-25T00:42:14.330Z,-147
2019-05-25T00:42:44.309Z,-150
2019-05-25T00:43:14.323Z,-146
2019-05-25T00:43:44.378Z,-146
2019-05-25T00:44:14.366Z,-147
2019-05-25T00:44:44.393Z,-149
2019-05-25T00:45:14.550Z,-151
2019-05-25T00:45:44.439Z,-151
2019-05-25T00:46:14.404Z,-148
2019-05-25T00:46:44.428Z,-150
2019-05-25T00:47:14.421Z,-148
2019-05-25T00:47:44.422Z,-151
2019-05-25T00:48:14.506Z,-148
2019-05-25T00:49:14.662Z,-151
2019-05-25T00:49:44.686Z,-151
2019-05-25T00:50:14.694Z,-152
2019-05-25T00:50:44.636Z,-152
2019-05-25T00:51:14.545Z,-148
2019-05-25T00:51:44.513Z,-148
2019-05-25T00:52:14.498Z,-149
2019-05-25T00:52:44.635Z,-149
2019-05-25T00:53:14.803Z,-147
2019-05-25T00:53:44.784Z,-149
2019-05-25T00:54:26.954Z,-149
2019-05-25T00:54:44.672Z,-149
2019-05-25T00:55:14.599Z,-149
2019-05-25T00:55:44.656Z,-151
2019-05-25T00:56:14.877Z,-147
2019-05-25T00:56:44.822Z,-147
2019-05-25T00:57:14.951Z,-146
2019-05-25T00:57:44.881Z,-146
2019-05-25T00:58:14.929Z,-149
2019-05-25T00:58:44.736Z,-149
2019-05-25T00:59:14.772Z,-151
2019-05-25T00:59:45.026Z,-151
2019-05-25T01:00:14.852Z,-152
2019-05-25T01:00:44.769Z,-152
2019-05-25T01:01:14.776Z,-151
2019-05-25T01:01:44.855Z,-150
2019-05-25T01:02:14.883Z,-150
2019-05-25T01:02:44.844Z,-152
2019-05-25T01:03:14.808Z,-151
2019-05-25T01:03:44.822Z,-151
2019-05-25T01:04:15.060Z,-150
2019-05-25T01:04:44.882Z,-151
2019-05-25T01:05:14.868Z,-153
2019-05-25T01:05:44.989Z,-150
2019-05-25T01:06:14.912Z,-152
2019-05-25T01:06:44.960Z,-152
2019-05-25T01:07:15.009Z,-147
2019-05-25T01:07:44.964Z,-152
2019-05-25T01:08:15.009Z,-152
2019-05-25T01:09:15.239Z,-150
2019-05-25T01:09:45.193Z,-150
2019-05-25T01:10:15.292Z,-150
2019-05-25T01:11:15.093Z,-152
2019-05-25T01:11:45.177Z,-150
2019-05-25T01:12:45.424Z,-151
2019-05-25T01:13:15.392Z,-150
2019-05-25T01:13:45.386Z,-150
2019-05-25T01:14:15.594Z,-151
2019-05-25T01:14:45.275Z,-152
2019-05-25T01:15:15.269Z,-153
2019-05-25T01:15:45.236Z,-153
2019-05-25T01:16:15.444Z,-153
2019-05-25T01:16:45.479Z,-148
2019-05-25T01:17:15.512Z,-151
2019-05-25T01:17:45.630Z,-151
2019-05-25T01:18:15.729Z,-151
2019-05-25T01:18:45.397Z,-151
2019-05-25T01:19:15.417Z,-152
2019-05-25T01:19:45.387Z,-151
2019-05-25T01:20:15.439Z,-154
2019-05-25T01:20:45.454Z,-152
2019-05-25T01:21:15.529Z,-152
2019-05-25T01:22:15.452Z,-154
2019-05-25T01:22:45.462Z,-154
2019-05-25T01:23:15.549Z,-153
2019-05-25T01:23:45.405Z,-154
2019-05-25T01:24:15.509Z,-152
2019-05-25T01:24:45.553Z,-151
2019-05-25T01:25:15.607Z,-151
2019-05-25T01:25:45.561Z,-152
2019-05-25T01:26:15.670Z,-150
2019-05-25T01:26:45.551Z,-153
2019-05-25T01:27:15.677Z,-153
2019-05-25T01:27:45.598Z,-153
2019-05-25T01:28:15.608Z,-152
2019-05-25T01:28:45.797Z,-151
2019-05-25T01:29:15.848Z,-152
2019-05-25T01:29:45.778Z,-147
2019-05-25T01:30:15.977Z,-151
2019-05-25T01:30:45.674Z,-151
2019-05-25T01:31:15.781Z,-145
2019-05-25T01:31:45.771Z,-149
2019-05-25T01:32:15.824Z,-151
2019-05-25T01:32:46.121Z,-152
2019-05-25T01:33:16.056Z,-151
2019-05-25T01:33:45.957Z,-151
2019-05-25T01:34:16.114Z,-151
2019-05-25T01:34:45.822Z,-150
2019-05-25T01:35:15.856Z,-150
2019-05-25T01:35:45.852Z,-150
2019-05-25T01:36:16.109Z,-149
2019-05-25T01:36:46.050Z,-150
2019-05-25T01:37:16.137Z,-150
2019-05-25T01:37:48.406Z,-150
2019-05-25T01:38:16.118Z,-148
2019-05-25T01:38:45.927Z,-150
2019-05-25T01:39:16.014Z,-148
2019-05-25T01:39:46.130Z,-148
2019-05-25T01:40:15.981Z,-150
2019-05-25T01:40:45.981Z,-149
2019-05-25T01:41:16.062Z,-148
2019-05-25T01:41:46.005Z,-148
2019-05-25T01:42:16.083Z,-146
2019-05-25T01:42:46.184Z,-146
2019-05-25T01:43:16.041Z,-149
2019-05-25T01:44:16.064Z,-149
2019-05-25T01:44:46.099Z,-150
2019-05-25T01:45:16.167Z,-151
2019-05-25T01:45:46.175Z,-151
2019-05-25T01:46:16.140Z,-149
2019-05-25T01:46:46.160Z,-148
2019-05-25T01:47:16.149Z,-149
2019-05-25T01:47:46.161Z,-149
2019-05-25T01:48:16.304Z,-150
2019-05-25T01:48:46.393Z,-149
2019-05-25T01:49:16.310Z,-149
2019-05-25T01:49:46.294Z,-148
2019-05-25T01:50:16.478Z,-148
2019-05-25T01:50:46.257Z,-149
2019-05-25T01:51:16.249Z,-149
2019-05-25T01:51:46.268Z,-149
2019-05-25T01:52:16.422Z,-150
2019-05-25T01:52:46.450Z,-150
2019-05-25T01:53:16.488Z,-150
2019-05-25T01:53:46.512Z,-149
2019-05-25T01:54:16.476Z,-149
2019-05-25T01:55:16.338Z,-152
2019-05-25T01:55:46.432Z,-151
2019-05-25T01:56:16.448Z,-151
2019-05-25T01:56:46.543Z,-151
2019-05-25T01:57:16.613Z,-149
2019-05-25T01:57:46.591Z,-149
2019-05-25T01:58:16.702Z,-150
2019-05-25T01:58:46.565Z,-151
2019-05-25T01:59:16.534Z,-151
2019-05-25T01:59:46.506Z,-151
2019-05-25T02:00:16.668Z,-150
2019-05-25T02:00:46.531Z,-150
2019-05-25T02:01:16.606Z,-149
2019-05-25T02:01:46.598Z,-150
2019-05-25T02:02:16.508Z,-150
2019-05-25T02:02:46.564Z,-149
2019-05-25T02:03:16.674Z,-150
2019-05-25T02:03:46.563Z,-152
2019-05-25T02:04:16.622Z,-148
2019-05-25T02:04:46.645Z,-148
2019-05-25T02:05:16.663Z,-152
2019-05-25T02:05:46.930Z,-151
2019-05-25T02:06:16.639Z,-151
2019-05-25T02:06:46.718Z,-151
2019-05-25T02:07:16.663Z,-151
2019-05-25T02:07:46.610Z,-151
2019-05-25T02:08:16.692Z,-152
2019-05-25T02:08:46.872Z,-149
2019-05-25T02:09:16.848Z,-149
2019-05-25T02:09:46.960Z,-149
2019-05-25T02:10:16.860Z,-151
2019-05-25T02:10:46.818Z,-150
2019-05-25T02:11:16.728Z,-151
2019-05-25T02:11:46.743Z,-149
2019-05-25T02:12:17.041Z,-150
2019-05-25T02:12:46.945Z,-150
2019-05-25T02:13:16.861Z,-152
2019-05-25T02:13:46.910Z,-150
2019-05-25T02:14:16.948Z,-150
2019-05-25T02:14:46.829Z,-149
2019-05-25T02:15:16.853Z,-151
2019-05-25T02:15:46.878Z,-151
2019-05-25T02:16:16.986Z,-152
2019-05-25T02:16:47.012Z,-149
2019-05-25T02:17:47.080Z,-154
2019-05-25T02:18:17.189Z,-152
2019-05-25T02:18:46.948Z,-152
2019-05-25T02:19:16.992Z,-150
2019-05-25T02:19:47.058Z,-150
2019-05-25T02:20:16.999Z,-150
2019-05-25T02:20:46.942Z,-152
2019-05-25T02:21:16.968Z,-152
2019-05-25T02:21:47.075Z,-148
2019-05-25T02:22:16.948Z,-148
2019-05-25T02:22:47.034Z,-148
2019-05-25T02:23:17.058Z,-149
2019-05-25T02:23:47.019Z,-149
2019-05-25T02:24:17.076Z,-147
2019-05-25T02:24:47.049Z,-148
2019-05-25T02:25:18.409Z,-147
2019-05-25T02:25:47.147Z,-148
2019-05-25T02:26:17.075Z,-147
2019-05-25T02:26:47.066Z,-148
2019-05-25T02:27:17.060Z,-149
2019-05-25T02:27:47.151Z,-149
2019-05-25T02:28:47.288Z,-148
2019-05-25T02:29:17.251Z,-149
2019-05-25T02:29:47.311Z,-149
2019-05-25T02:30:17.198Z,-150
2019-05-25T02:30:47.234Z,-150
2019-05-25T02:31:17.199Z,-148
2019-05-25T02:31:47.187Z,-148
2019-05-25T02:32:17.349Z,-148
2019-05-25T02:32:47.400Z,-149
2019-05-25T02:33:17.367Z,-146
2019-05-25T02:33:47.567Z,-150
2019-05-25T02:34:17.322Z,-146
2019-05-25T02:34:47.281Z,-148
2019-05-25T02:35:17.259Z,-148
2019-05-25T02:35:47.265Z,-147
2019-05-25T02:36:20.588Z,-147
2019-05-25T02:36:47.509Z,-151
2019-05-25T02:37:17.462Z,-150
2019-05-25T02:37:47.514Z,-150
2019-05-25T02:38:17.415Z,-148
2019-05-25T02:39:17.437Z,-149
2019-05-25T02:39:47.437Z,-149
2019-05-25T02:40:17.430Z,-147
2019-05-25T02:40:47.401Z,-147
2019-05-25T02:41:17.344Z,-147
2019-05-25T02:41:47.390Z,-147
2019-05-25T02:42:17.397Z,-149
2019-05-25T02:42:47.399Z,-151
2019-05-25T02:43:17.505Z,-151
2019-05-25T02:43:47.538Z,-150
2019-05-25T02:44:17.559Z,-150
2019-05-25T02:44:47.617Z,-148
2019-05-25T02:45:17.540Z,-148
2019-05-25T02:45:47.511Z,-150
2019-05-25T02:46:17.542Z,-150
2019-05-25T02:46:47.523Z,-149
2019-05-25T02:47:17.522Z,-149
2019-05-25T02:47:47.729Z,-149
2019-05-25T02:48:17.686Z,-147
2019-05-25T02:48:47.705Z,-148
2019-05-25T02:49:17.678Z,-149
2019-05-25T02:50:17.579Z,-151
2019-05-25T02:50:47.557Z,-148
2019-05-25T02:51:17.622Z,-149
2019-05-25T02:51:47.663Z,-149
2019-05-25T02:52:17.743Z,-148
2019-05-25T02:52:47.817Z,-151
2019-05-25T02:53:17.763Z,-151
2019-05-25T02:53:47.683Z,-150
2019-05-25T02:54:17.662Z,-149
2019-05-25T02:54:47.655Z,-149
2019-05-25T02:55:32.808Z,-149
2019-05-25T02:55:47.887Z,-153
2019-05-25T02:56:17.931Z,-149
2019-05-25T02:56:47.968Z,-149
2019-05-25T02:57:18.031Z,-149
2019-05-25T02:57:47.831Z,-151
2019-05-25T02:58:17.878Z,-151
2019-05-25T02:58:47.840Z,-149
2019-05-25T02:59:17.827Z,-149
2019-05-25T02:59:47.929Z,-151
2019-05-25T03:00:17.894Z,-150
2019-05-25T03:00:48.322Z,-153
2019-05-25T03:01:17.911Z,-153
2019-05-25T03:01:47.892Z,-150
2019-05-25T03:02:17.898Z,-150
2019-05-25T03:02:47.977Z,-149
2019-05-25T03:03:18.049Z,-147
2019-05-25T03:03:48.055Z,-149
2019-05-25T03:04:18.020Z,-148
2019-05-25T03:04:47.989Z,-148
2019-05-25T03:05:18.008Z,-151
2019-05-25T03:05:48.006Z,-148
2019-05-25T03:06:18.164Z,-150
2019-05-25T03:06:47.992Z,-150
2019-05-25T03:07:18.290Z,-147
2019-05-25T03:07:48.194Z,-150
2019-05-25T03:08:18.266Z,-149
2019-05-25T03:08:48.198Z,-147
2019-05-25T03:09:18.432Z,-148
2019-05-25T03:09:48.220Z,-148
2019-05-25T03:10:18.130Z,-148
2019-05-25T03:10:48.112Z,-149
2019-05-25T03:11:18.433Z,-149
2019-05-25T03:12:18.415Z,-152
2019-05-25T03:12:48.361Z,-152
2019-05-25T03:13:18.385Z,-149
2019-05-25T03:13:48.238Z,-149
2019-05-25T03:14:18.242Z,-150
2019-05-25T03:14:48.242Z,-151
2019-05-25T03:15:18.417Z,-150
2019-05-25T03:15:48.394Z,-150
2019-05-25T03:16:18.571Z,-151
2019-05-25T03:16:48.644Z,-151
2019-05-25T03:17:18.410Z,-151
2019-05-25T03:17:48.624Z,-148
2019-05-25T03:18:18.306Z,-147
2019-05-25T03:18:48.418Z,-150
2019-05-25T03:19:18.402Z,-147
2019-05-25T03:19:48.404Z,-148
2019-05-25T03:20:18.503Z,-148
2019-05-25T03:20:48.504Z,-148
2019-05-25T03:21:18.447Z,-151
2019-05-25T03:21:48.454Z,-147
2019-05-25T03:22:48.464Z,-149
2019-05-25T03:23:18.465Z,-149
2019-05-25T03:23:48.498Z,-148
2019-05-25T03:24:18.567Z,-147
2019-05-25T03:24:48.596Z,-147
2019-05-25T03:25:18.513Z,-147
2019-05-25T03:25:49.806Z,-147
2019-05-25T03:26:18.565Z,-148
2019-05-25T03:26:48.526Z,-146
2019-05-25T03:27:18.669Z,-146
2019-05-25T03:27:48.789Z,-148
2019-05-25T03:28:18.895Z,-155
2019-05-25T03:28:48.798Z,-155
2019-05-25T03:29:18.671Z,-172
2019-05-25T03:29:48.652Z,-147
2019-05-25T03:30:18.674Z,-148
2019-05-25T03:30:48.667Z,-148
2019-05-25T03:31:18.788Z,-147
2019-05-25T03:31:48.809Z,-147
2019-05-25T03:32:19.025Z,-147
2019-05-25T03:32:48.814Z,-148
2019-05-25T03:33:21.374Z,-149
2019-05-25T03:33:48.739Z,-148
2019-05-25T03:34:18.693Z,-148
2019-05-25T03:34:48.726Z,-148
2019-05-25T03:35:18.877Z,-147
2019-05-25T03:35:48.881Z,-149
2019-05-25T03:36:18.979Z,-148
2019-05-25T03:36:48.925Z,-148
2019-05-25T03:37:18.827Z,-146
2019-05-25T03:37:48.896Z,-146
2019-05-25T03:38:18.828Z,-149
2019-05-25T03:38:48.939Z,-147
2019-05-25T03:39:18.872Z,-147
2019-05-25T03:39:48.857Z,-148
2019-05-25T03:40:18.938Z,-148
2019-05-25T03:40:48.926Z,-148
2019-05-25T03:41:18.926Z,-147
2019-05-25T03:41:48.917Z,-145
2019-05-25T03:42:18.929Z,-148
2019-05-25T03:42:48.947Z,-147
2019-05-25T03:43:18.994Z,-149
2019-05-25T03:43:49.043Z,-147
2019-05-25T03:44:48.944Z,-149
2019-05-25T03:45:18.980Z,-149
2019-05-25T03:45:48.969Z,-150
2019-05-25T03:46:19.056Z,-150
2019-05-25T03:46:49.153Z,-149
2019-05-25T03:47:19.133Z,-148
2019-05-25T03:47:49.131Z,-149
2019-05-25T03:48:19.297Z,-149
2019-05-25T03:48:49.119Z,-149
2019-05-25T03:49:19.076Z,-149
2019-05-25T03:49:49.220Z,-148
2019-05-25T03:50:19.117Z,-148
2019-05-25T03:50:49.240Z,-150
2019-05-25T03:51:19.293Z,-150
2019-05-25T03:51:49.319Z,-150
2019-05-25T03:52:19.331Z,-148
2019-05-25T03:52:49.283Z,-149
2019-05-25T03:53:19.249Z,-149
2019-05-25T03:53:49.289Z,-150
2019-05-25T03:54:19.258Z,-151
2019-05-25T03:54:49.374Z,-151
2019-05-25T03:55:19.790Z,-151
2019-05-25T03:56:02.919Z,-151
2019-05-25T03:56:19.545Z,-151
2019-05-25T03:56:49.503Z,-147
2019-05-25T03:57:19.388Z,-149
2019-05-25T03:57:49.354Z,-149
2019-05-25T03:58:19.379Z,-148
2019-05-25T03:58:49.366Z,-151
2019-05-25T03:59:19.459Z,-149
2019-05-25T03:59:49.462Z,-151
2019-05-25T04:00:19.486Z,-151
2019-05-25T04:00:49.542Z,-151
2019-05-25T04:01:19.430Z,-149
2019-05-25T04:01:49.526Z,-139
2019-05-25T04:02:19.537Z,-139
2019-05-25T04:02:49.485Z,-133
2019-05-25T04:03:19.609Z,-139
2019-05-25T04:03:49.558Z,-136
2019-05-25T04:04:19.505Z,-136
2019-05-25T04:04:49.604Z,-138
2019-05-25T04:05:19.563Z,-138
2019-05-25T04:05:49.599Z,-137
2019-05-25T04:06:19.763Z,-139
2019-05-25T04:06:50.990Z,-137
2019-05-25T04:07:19.821Z,-135
2019-05-25T04:07:49.848Z,-135
2019-05-25T04:08:19.675Z,-138
2019-05-25T04:08:49.590Z,-138
2019-05-25T04:09:19.649Z,-134
2019-05-25T04:09:49.601Z,-135
2019-05-25T04:10:19.910Z,-135
2019-05-25T04:10:49.770Z,-135
2019-05-25T04:11:19.909Z,-132
2019-05-25T04:11:49.836Z,-131
2019-05-25T04:12:19.700Z,-131
2019-05-25T04:12:49.661Z,-132
2019-05-25T04:13:19.792Z,-131
2019-05-25T04:13:49.777Z,-130
2019-05-25T04:14:19.914Z,-128
2019-05-25T04:14:49.915Z,-130
2019-05-25T04:15:19.990Z,-130
2019-05-25T04:15:49.974Z,-128
2019-05-25T04:16:19.806Z,-130
2019-05-25T04:16:49.897Z,-147
2019-05-25T04:17:20.455Z,-147
2019-05-25T04:17:49.866Z,-136
2019-05-25T04:18:19.846Z,-127
2019-05-25T04:18:49.910Z,-127
2019-05-25T04:19:19.824Z,-127
2019-05-25T04:19:49.843Z,-126
2019-05-25T04:20:19.867Z,-126
2019-05-25T04:20:49.830Z,-129
2019-05-25T04:21:19.902Z,-129
2019-05-25T04:21:49.878Z,-126
2019-05-25T04:22:20.146Z,-128
2019-05-25T04:22:50.067Z,-132
2019-05-25T04:23:20.001Z,-131
2019-05-25T04:23:50.134Z,-128
2019-05-25T04:24:19.978Z,-128
2019-05-25T04:24:49.980Z,-128
2019-05-25T04:25:20.010Z,-128
2019-05-25T04:25:50.294Z,-125
2019-05-25T04:26:22.319Z,-126
2019-05-25T04:26:50.154Z,-126
2019-05-25T04:27:20.461Z,-122
2019-05-25T04:27:50.164Z,-125
2019-05-25T04:28:20.095Z,-125
2019-05-25T04:28:52.347Z,-126
2019-05-25T04:29:20.216Z,-126
2019-05-25T04:29:50.270Z,-123
2019-05-25T04:30:20.352Z,-127
2019-05-25T04:30:50.295Z,-127
2019-05-25T04:31:20.371Z,-123
2019-05-25T04:31:50.230Z,-123
2019-05-25T04:32:20.217Z,-124
2019-05-25T04:32:50.315Z,-123
2019-05-25T04:33:20.292Z,-126
2019-05-25T04:33:50.355Z,-148
2019-05-25T04:34:20.495Z,-149
2019-05-25T04:34:50.583Z,-129
2019-05-25T04:35:20.490Z,-121
2019-05-25T04:35:50.385Z,-119
2019-05-25T04:36:20.406Z,-121
2019-05-25T04:36:50.378Z,-121
2019-05-25T04:37:20.439Z,-120
2019-05-25T04:37:50.413Z,-119
2019-05-25T04:38:20.592Z,-121
2019-05-25T04:38:50.544Z,-122
2019-05-25T04:39:20.539Z,-122
2019-05-25T04:39:50.845Z,-122
2019-05-25T04:40:22.929Z,-121
2019-05-25T04:40:50.458Z,-121
2019-05-25T04:41:20.533Z,-122
2019-05-25T04:41:50.638Z,-122
2019-05-25T04:42:20.448Z,-122
2019-05-25T04:42:50.595Z,-122
2019-05-25T04:43:20.682Z,-120
2019-05-25T04:43:50.829Z,-120
2019-05-25T04:44:20.556Z,-124
2019-05-25T04:44:50.615Z,-122
2019-05-25T04:45:20.665Z,-119
2019-05-25T04:45:50.800Z,-121
2019-05-25T04:46:21.592Z,-121
2019-05-25T04:46:50.855Z,-120
2019-05-25T04:47:26.754Z,-120
2019-05-25T04:47:50.661Z,-121
2019-05-25T04:48:20.639Z,-119
2019-05-25T04:48:50.649Z,-119
2019-05-25T04:49:20.833Z,-119
2019-05-25T04:49:50.855Z,-118
2019-05-25T04:50:20.913Z,-119
2019-05-25T04:50:53.101Z,-136
2019-05-25T04:51:21.272Z,-135
2019-05-25T04:51:21.357Z,-125
2019-05-25T05:01:22.531Z,-121
2019-05-25T05:05:21.334Z,-116
2019-05-25T05:06:51.341Z,-117
2019-05-25T05:07:21.349Z,-152
2019-05-25T05:09:21.366Z,-112
2019-05-25T05:10:01.966Z,-111
2019-05-25T05:10:21.449Z,-110
2019-05-25T05:10:51.653Z,-106
2019-05-25T05:11:21.535Z,-111
2019-05-25T05:11:51.362Z,-109
2019-05-25T05:12:21.355Z,-104
2019-05-25T05:12:51.603Z,-102
2019-05-25T05:13:21.424Z,-97
2019-05-25T05:13:51.512Z,-95
2019-05-25T05:14:21.439Z,-94
2019-05-25T05:14:51.554Z,-92
2019-05-25T05:15:21.374Z,-93
2019-05-25T05:15:51.337Z,-92
2019-05-25T05:16:21.524Z,-95
2019-05-25T05:16:51.476Z,-95
2019-05-25T05:17:21.363Z,-88
2019-05-25T05:17:51.452Z,-88
2019-05-25T05:18:21.347Z,-90
2019-05-25T05:18:51.381Z,-89
2019-05-25T05:19:21.457Z,-89
2019-05-25T05:19:51.429Z,-90
2019-05-25T05:20:21.407Z,-86
2019-05-25T05:20:51.494Z,-86
2019-05-25T05:21:21.492Z,-83
2019-05-25T05:21:51.611Z,-84
2019-05-25T05:22:21.566Z,-81
2019-05-25T05:22:51.475Z,-76
2019-05-25T05:23:21.643Z,-100
2019-05-25T05:23:51.523Z,-94
2019-05-25T05:24:21.518Z,-75
2019-05-25T05:24:51.589Z,-121
2019-05-25T05:25:21.683Z,-93
2019-05-25T05:25:51.673Z,-88
2019-05-25T05:26:21.711Z,-44
2019-05-25T05:27:21.660Z,-41
2019-05-25T05:27:51.657Z,-35
2019-05-25T05:28:21.604Z,-35
2019-05-25T05:28:51.835Z,-35
2019-05-25T05:29:21.835Z,-29
2019-05-25T05:29:51.793Z,-26
2019-05-25T05:30:21.853Z,-27
2019-05-25T05:30:51.918Z,-20
2019-05-25T05:31:23.685Z,-20
2019-05-25T05:31:51.744Z,-19
2019-05-25T05:32:27.305Z,-18
2019-05-25T05:32:51.983Z,-15
2019-05-25T05:33:21.961Z,-16
2019-05-25T05:33:52.066Z,-32
2019-05-25T05:34:22.049Z,-28
2019-05-25T05:34:52.072Z,-24
2019-05-25T05:35:22.092Z,-22
2019-05-25T05:35:52.056Z,-26
2019-05-25T05:36:22.085Z,-24
2019-05-25T05:36:52.196Z,-20
2019-05-25T05:37:22.061Z,-21
2019-05-25T05:38:22.097Z,-8
2019-05-25T05:38:52.067Z,-9
2019-05-25T05:39:22.153Z,-1
2019-05-25T05:39:52.166Z,2
2019-05-25T05:40:22.168Z,0
2019-05-25T05:40:52.188Z,7
2019-05-25T05:41:22.190Z,-119
2019-05-25T05:41:52.181Z,-78
2019-05-25T05:42:22.197Z,-44
2019-05-25T05:42:52.188Z,-43
2019-05-25T05:43:22.321Z,-5
2019-05-25T05:43:52.234Z,0
2019-05-25T05:44:22.281Z,-1
2019-05-25T05:44:52.359Z,2
2019-05-25T05:45:22.322Z,8
2019-05-25T05:45:52.364Z,10
2019-05-25T05:46:22.554Z,-9
2019-05-25T05:46:52.277Z,-2
2019-05-25T05:47:22.281Z,5
2019-05-25T05:47:52.277Z,19
2019-05-25T05:48:22.370Z,18
2019-05-25T05:49:22.473Z,30
2019-05-25T05:49:52.551Z,35
2019-05-25T05:50:22.600Z,34
2019-05-25T05:50:52.442Z,36
2019-05-25T05:51:22.355Z,33
2019-05-25T05:51:52.407Z,27
2019-05-25T05:52:22.418Z,31
2019-05-25T05:52:52.584Z,28
2019-05-25T05:53:22.448Z,29
2019-05-25T05:53:52.549Z,28
2019-05-25T05:54:22.807Z,24
2019-05-25T05:54:52.492Z,25
2019-05-25T05:55:22.429Z,27
2019-05-25T05:55:52.512Z,27
2019-05-25T05:56:22.445Z,19
2019-05-25T05:56:52.496Z,17
2019-05-25T05:57:22.457Z,17
2019-05-25T05:57:52.487Z,-159
2019-05-25T05:58:22.500Z,-158
2019-05-25T05:58:52.493Z,-128
2019-05-25T05:59:22.827Z,-39
2019-05-25T05:59:53.074Z,0
2019-05-25T06:00:22.560Z,5
2019-05-25T06:00:52.598Z,3
2019-05-25T06:01:22.637Z,0
2019-05-25T06:01:52.586Z,-4
2019-05-25T06:02:22.648Z,-3
2019-05-25T06:02:52.557Z,0
2019-05-25T06:03:22.538Z,1
2019-05-25T06:03:52.751Z,-12
2019-05-25T06:04:22.619Z,-9
2019-05-25T06:04:52.744Z,-17
2019-05-25T06:05:23.010Z,-18
2019-05-25T06:05:52.827Z,-19
2019-05-25T06:06:22.816Z,-28
2019-05-25T06:06:52.747Z,-37
2019-05-25T06:07:22.705Z,-40
2019-05-25T06:07:52.709Z,-36
2019-05-25T06:08:22.718Z,-37
2019-05-25T06:08:52.906Z,-41
2019-05-25T06:09:22.800Z,-41
2019-05-25T06:09:52.896Z,-43
2019-05-25T06:10:23.224Z,-47
2019-05-25T06:10:52.953Z,-48
2019-05-25T06:11:22.809Z,-45
2019-05-25T06:11:52.828Z,-67
2019-05-25T06:12:22.793Z,-61
2019-05-25T06:12:52.962Z,-63
2019-05-25T06:13:22.989Z,-63
2019-05-25T06:13:52.937Z,-63
2019-05-25T06:14:23.106Z,-63
2019-05-25T06:14:53.158Z,-61
2019-05-25T06:15:22.940Z,-148
2019-05-25T06:15:55.750Z,-124
2019-05-25T06:16:23.048Z,-124
2019-05-25T06:16:52.964Z,-98
2019-05-25T06:17:22.961Z,-57
2019-05-25T06:17:52.945Z,-46
2019-05-25T06:18:22.997Z,-42
2019-05-25T06:18:52.928Z,-41
2019-05-25T06:19:23.009Z,-35
2019-05-25T06:19:53.068Z,-35
2019-05-25T06:20:23.215Z,-34
2019-05-25T06:20:53.020Z,-31
2019-05-25T06:21:23.125Z,-25
2019-05-25T06:22:23.118Z,-28
2019-05-25T06:22:53.072Z,-25
2019-05-25T06:23:23.094Z,-23
2019-05-25T06:23:53.126Z,-22
2019-05-25T06:24:23.190Z,-20
2019-05-25T06:24:53.373Z,-20
2019-05-25T06:25:23.301Z,-18
2019-05-25T06:25:53.338Z,-15
2019-05-25T06:26:23.421Z,-42
2019-05-25T06:26:53.540Z,-22
2019-05-25T06:27:27.265Z,-20
2019-05-25T06:27:53.230Z,-18
2019-05-25T06:28:23.265Z,-13
2019-05-25T06:28:53.317Z,-14
2019-05-25T06:29:23.351Z,-13
2019-05-25T06:29:53.397Z,-13
2019-05-25T06:30:23.417Z,-12
2019-05-25T06:30:53.450Z,-11
2019-05-25T06:31:23.348Z,-13
2019-05-25T06:31:53.325Z,-11
2019-05-25T06:32:23.492Z,-137
2019-05-25T06:33:23.557Z,-62
2019-05-25T06:33:53.614Z,-64
2019-05-25T06:34:23.607Z,-17
2019-05-25T06:34:53.377Z,20
2019-05-25T06:35:23.391Z,25
2019-05-25T06:35:53.499Z,40
2019-05-25T06:36:23.461Z,39
2019-05-25T06:36:53.410Z,43
2019-05-25T06:37:23.472Z,47
2019-05-25T06:37:53.445Z,54
2019-05-25T06:38:23.534Z,60
2019-05-25T06:38:53.499Z,58
2019-05-25T06:39:23.530Z,55
2019-05-25T06:39:53.527Z,59
2019-05-25T06:40:23.551Z,65
2019-05-25T06:40:53.602Z,63
2019-05-25T06:41:23.608Z,66
2019-05-25T06:41:53.648Z,65
2019-05-25T06:42:23.586Z,68
2019-05-25T06:42:53.572Z,61
2019-05-25T06:43:23.644Z,62
2019-05-25T06:43:53.960Z,54
2019-05-25T06:44:23.773Z,44
2019-05-25T06:44:54.086Z,44
2019-05-25T06:45:23.765Z,42
2019-05-25T06:45:53.841Z,40
2019-05-25T06:46:24.007Z,43
2019-05-25T06:46:53.692Z,29
2019-05-25T06:47:23.678Z,28
2019-05-25T06:47:53.670Z,37
2019-05-25T06:48:23.904Z,44
2019-05-25T06:48:53.763Z,39
2019-05-25T06:49:24.046Z,31
2019-05-25T06:49:53.923Z,-107
2019-05-25T06:50:24.250Z,-74
2019-05-25T06:50:53.879Z,-72
2019-05-25T06:51:23.769Z,-16
2019-05-25T06:51:53.854Z,-24
2019-05-25T06:52:23.952Z,-32
2019-05-25T06:52:57.189Z,-31
2019-05-25T06:53:23.947Z,-40
2019-05-25T06:53:54.058Z,-42
2019-05-25T06:54:23.973Z,-50
2019-05-25T06:54:54.055Z,-46
2019-05-25T06:55:24.219Z,-46
2019-05-25T06:55:54.120Z,-46
2019-05-25T06:56:23.996Z,-47
2019-05-25T06:56:53.959Z,-47
2019-05-25T06:57:23.989Z,-62
2019-05-25T06:57:54.057Z,-63
2019-05-25T06:58:24.076Z,-61
2019-05-25T06:58:54.008Z,-58
2019-05-25T06:59:24.032Z,-49
2019-05-25T06:59:54.097Z,-51
2019-05-25T07:00:24.113Z,-55
2019-05-25T07:00:54.105Z,-60
2019-05-25T07:01:24.103Z,-58
2019-05-25T07:01:54.178Z,-59
2019-05-25T07:02:24.107Z,-63
2019-05-25T07:02:54.163Z,94
2019-05-25T07:03:24.129Z,-60
2019-05-25T07:03:54.237Z,-56
2019-05-25T07:04:24.192Z,-57
2019-05-25T07:04:54.261Z,-51
2019-05-25T07:05:24.352Z,-53
2019-05-25T07:05:54.335Z,-50
2019-05-25T07:06:54.251Z,-150
2019-05-25T07:07:24.268Z,-121
2019-05-25T07:07:54.800Z,-92
2019-05-25T07:08:24.701Z,-43
2019-05-25T07:08:54.481Z,-42
2019-05-25T07:09:24.405Z,-42
2019-05-25T07:09:54.581Z,-41
2019-05-25T07:10:24.332Z,-38
2019-05-25T07:10:54.490Z,-38
2019-05-25T07:11:24.340Z,-37
2019-05-25T07:11:54.342Z,-37